Time;durP1;ratioP1;P1;durP2;ratioP2;P2;SDS_P1;SDS_P2;PMS_P1;PMS_P2;Temp;Humidity;BMP_temperature;BMP_pressure;BME280_temperature;BME280_humidity;BME280_pressure;Samples;Min_cycle;Max_cycle;Signal;HPM_P1;HPM_P2
2022/06/03 00:01:54;;;;;;;9.82;3.10;;;10.80;99.90;;;;;;5091800;28;20051;-77
2022/06/03 00:04:42;;;;;;;8.73;2.92;;;10.80;99.90;;;;;;5091967;28;20044;-77
2022/06/03 00:07:07;;;;;;;8.40;3.10;;;10.80;99.90;;;;;;5093895;28;20097;-76
2022/06/03 00:10:00;;;;;;;7.45;3.03;;;10.80;99.90;;;;;;5075044;28;20505;-76
2022/06/03 00:12:54;;;;;;;6.88;3.03;;;10.80;99.90;;;;;;5091014;28;20044;-75
2022/06/03 00:15:26;;;;;;;9.80;3.08;;;10.80;99.90;;;;;;5091524;28;20040;-78
2022/06/03 00:18:37;;;;;;;7.03;3.10;;;10.80;99.90;;;;;;5091483;28;20040;-77
2022/06/03 00:21:07;;;;;;;8.30;3.22;;;10.80;99.90;;;;;;5091604;28;20408;-78
2022/06/03 00:23:46;;;;;;;11.00;3.70;;;10.80;99.90;;;;;;5092731;28;20132;-76
2022/06/03 00:26:35;;;;;;;7.43;3.33;;;10.70;99.90;;;;;;5092246;28;20112;-77
2022/06/03 00:29:13;;;;;;;8.00;3.30;;;10.70;99.90;;;;;;5074551;28;20044;-75
2022/06/03 00:32:16;;;;;;;11.70;3.90;;;10.60;99.90;;;;;;5075396;28;20098;-75
2022/06/03 00:35:07;;;;;;;8.73;3.85;;;10.60;99.90;;;;;;5092239;28;20044;-75
2022/06/03 00:37:42;;;;;;;9.20;3.45;;;10.60;99.90;;;;;;5092295;28;20055;-76
2022/06/03 00:40:27;;;;;;;8.35;3.60;;;10.50;99.90;;;;;;5091439;28;20373;-76
2022/06/03 00:43:02;;;;;;;9.10;3.80;;;10.50;99.90;;;;;;5090942;28;20366;-76
2022/06/03 00:45:37;;;;;;;7.20;3.60;;;10.50;99.90;;;;;;5091337;28;20290;-76
2022/06/03 00:48:42;;;;;;;8.35;3.35;;;10.50;99.90;;;;;;5091331;28;20047;-77
2022/06/03 00:51:17;;;;;;;9.15;2.88;;;10.40;99.90;;;;;;5091324;28;20065;-76
2022/06/03 00:53:55;;;;;;;12.48;3.60;;;10.40;99.90;;;;;;5092805;28;20051;-77
2022/06/03 00:56:58;;;;;;;12.10;4.03;;;10.40;99.90;;;;;;5074675;28;20051;-75
2022/06/03 00:59:56;;;;;;;9.82;3.92;;;10.40;99.90;;;;;;5092297;28;20040;-76
2022/06/03 01:02:47;;;;;;;11.40;3.78;;;10.40;99.90;;;;;;5091691;28;20044;-77
2022/06/03 01:05:29;;;;;;;10.63;3.95;;;10.30;99.90;;;;;;5092624;28;20056;-78
2022/06/03 01:08:33;;;;;;;10.20;3.97;;;10.30;99.90;;;;;;5091362;28;20154;-76
2022/06/03 01:11:11;;;;;;;10.10;3.63;;;10.30;99.90;;;;;;5091170;28;20055;-76
2022/06/03 01:14:07;;;;;;;8.73;4.00;;;10.30;99.90;;;;;;5091226;28;20109;-77
2022/06/03 01:16:58;;;;;;;10.15;3.80;;;10.20;99.90;;;;;;5092319;28;20123;-77
2022/06/03 01:19:39;;;;;;;8.82;3.42;;;10.20;99.90;;;;;;5092080;28;20048;-77
2022/06/03 01:22:10;;;;;;;8.63;3.75;;;10.20;99.90;;;;;;5091663;28;20048;-77
2022/06/03 01:24:45;;;;;;;12.18;3.58;;;10.20;99.90;;;;;;5074037;28;20143;-76
2022/06/03 01:27:47;;;;;;;11.32;4.22;;;10.20;99.90;;;;;;5092460;28;20040;-77
2022/06/03 01:30:31;;;;;;;11.30;3.92;;;10.10;99.90;;;;;;5104563;28;20036;-76
2022/06/03 01:33:34;;;;;;;8.52;4.25;;;10.00;99.90;;;;;;5103378;28;20100;-74
2022/06/03 01:36:14;;;;;;;14.25;4.05;;;10.10;99.90;;;;;;5099875;28;20048;-78
2022/06/03 01:38:50;;;;;;;13.50;4.93;;;10.00;99.90;;;;;;5096887;28;20062;-76
2022/06/03 01:41:41;;;;;;;9.45;4.38;;;10.00;99.90;;;;;;5099053;28;20040;-75
2022/06/03 01:44:24;;;;;;;10.68;3.80;;;10.00;99.90;;;;;;5103936;28;20044;-76
2022/06/03 01:47:12;;;;;;;11.45;4.18;;;9.90;99.90;;;;;;5101218;28;20372;-76
2022/06/03 01:49:52;;;;;;;8.52;4.28;;;9.90;99.90;;;;;;5097044;28;20044;-77
2022/06/03 01:52:20;;;;;;;9.40;4.28;;;9.90;99.90;;;;;;5098629;28;20063;-77
2022/06/03 01:55:07;;;;;;;10.63;4.15;;;9.80;99.90;;;;;;5101107;28;20052;-77
2022/06/03 01:57:36;;;;;;;;;;;9.90;99.90;;;;;;5084636;28;20481;-78
2022/06/03 02:00:05;;;;;;;10.02;4.25;;;9.90;99.90;;;;;;5097708;28;20340;-75
2022/06/03 02:02:46;;;;;;;11.77;4.72;;;9.80;99.90;;;;;;5079044;28;20040;-76
2022/06/03 02:05:33;;;;;;;9.07;4.20;;;9.80;99.90;;;;;;5098568;28;20437;-78
2022/06/03 02:08:17;;;;;;;14.85;4.43;;;9.80;99.90;;;;;;5103409;28;20051;-77
2022/06/03 02:10:46;;;;;;;13.10;4.78;;;9.80;99.90;;;;;;5101956;28;20055;-76
2022/06/03 02:13:40;;;;;;;9.48;4.47;;;9.70;99.90;;;;;;5098961;28;20112;-76
2022/06/03 02:16:11;;;;;;;14.32;4.88;;;9.70;99.90;;;;;;5097552;28;20073;-77
2022/06/03 02:18:59;;;;;;;9.73;4.28;;;9.60;99.90;;;;;;5096491;28;20048;-76
2022/06/03 02:22:03;;;;;;;11.98;5.07;;;9.60;99.90;;;;;;5095722;28;20158;-76
2022/06/03 02:24:34;;;;;;;12.35;4.47;;;9.60;99.90;;;;;;5032067;28;20557;-76
2022/06/03 02:27:18;;;;;;;14.70;5.40;;;9.50;99.90;;;;;;5032623;28;20045;-76
2022/06/03 02:30:27;;;;;;;11.57;5.47;;;9.50;99.90;;;;;;5071675;28;20100;-77
2022/06/03 02:33:08;;;;;;;13.57;4.88;;;9.50;99.90;;;;;;5076682;28;20052;-76
2022/06/03 02:36:02;;;;;;;12.38;5.85;;;9.40;99.90;;;;;;5095416;28;20051;-76
2022/06/03 02:38:49;;;;;;;10.95;5.07;;;9.40;99.90;;;;;;5094898;28;20044;-76
2022/06/03 02:41:41;;;;;;;11.95;5.22;;;9.40;99.90;;;;;;5093560;28;20044;-76
2022/06/03 02:44:34;;;;;;;12.82;5.13;;;9.40;99.90;;;;;;5095683;28;20365;-77
2022/06/03 02:47:06;;;;;;;10.73;4.95;;;9.30;99.90;;;;;;5096587;28;20051;-76
2022/06/03 02:50:09;;;;;;;12.95;6.13;;;9.30;99.90;;;;;;5079038;28;20077;-75
2022/06/03 02:52:59;;;;;;;17.40;6.88;;;9.30;99.90;;;;;;5095556;28;20048;-76
2022/06/03 02:55:46;;;;;;;13.65;5.72;;;9.30;99.90;;;;;;5077072;28;20051;-75
2022/06/03 02:58:24;;;;;;;14.25;5.50;;;9.30;99.90;;;;;;5092931;28;20079;-74
2022/06/03 03:01:04;;;;;;;12.13;5.60;;;9.20;99.90;;;;;;5094237;28;20388;-74
2022/06/03 03:03:56;;;;;;;15.25;5.47;;;9.20;99.90;;;;;;5094140;28;20043;-76
2022/06/03 03:06:40;;;;;;;14.13;6.10;;;9.20;99.90;;;;;;5093211;28;20056;-77
2022/06/03 03:09:21;;;;;;;13.13;5.15;;;9.20;99.90;;;;;;5109941;28;20036;-77
2022/06/03 03:12:40;;;;;;;11.88;5.72;;;9.20;99.90;;;;;;5093080;28;20040;-76
2022/06/03 03:15:37;;;;;;;11.85;5.45;;;9.20;99.90;;;;;;5031392;28;20052;-77
2022/06/03 03:18:25;;;;;;;12.38;5.35;;;9.20;99.90;;;;;;5094141;28;20435;-75
2022/06/03 03:21:10;;;;;;;20.00;6.10;;;9.20;99.90;;;;;;5094059;28;20135;-76
2022/06/03 03:23:45;;;;;;;10.93;5.68;;;9.20;99.90;;;;;;5093021;28;20055;-74
2022/06/03 03:26:17;;;;;;;16.10;6.28;;;9.20;99.90;;;;;;5092493;28;20390;-74
2022/06/03 03:29:08;;;;;;;16.20;5.85;;;9.20;99.90;;;;;;5094199;28;20052;-75
2022/06/03 03:31:52;;;;;;;14.65;5.78;;;9.20;99.90;;;;;;5093988;28;20131;-76
2022/06/03 03:34:21;;;;;;;14.88;6.03;;;9.20;99.90;;;;;;5093588;28;20044;-75
2022/06/03 03:37:24;;;;;;;11.38;5.70;;;9.20;99.90;;;;;;5094198;28;20398;-77
2022/06/03 03:40:11;;;;;;;16.58;6.10;;;9.30;99.90;;;;;;5075433;28;20070;-75
2022/06/03 03:42:42;;;;;;;15.70;6.60;;;9.30;99.90;;;;;;5093115;28;20384;-77
2022/06/03 03:45:25;;;;;;;14.07;6.25;;;9.30;99.90;;;;;;5093376;28;20059;-77
2022/06/03 03:47:54;;;;;;;14.63;6.15;;;9.30;99.90;;;;;;5093714;28;20040;-76
2022/06/03 03:50:48;;;;;;;15.80;6.38;;;9.40;99.90;;;;;;5091438;28;20040;-74
2022/06/03 03:53:20;;;;;;;13.80;6.13;;;9.50;99.90;;;;;;5093608;28;20460;-78
2022/06/03 03:56:05;;;;;;;12.10;6.03;;;9.70;99.90;;;;;;5093181;28;20051;-78
2022/06/03 03:58:39;;;;;;;17.08;6.28;;;9.60;99.90;;;;;;5075522;28;20048;-77
2022/06/03 04:01:39;;;;;;;15.38;6.30;;;9.40;99.90;;;;;;5093476;28;20051;-77
2022/06/03 04:04:56;;;;;;;12.82;6.07;;;9.50;99.90;;;;;;5092579;28;20047;-78
2022/06/03 04:07:43;;;;;;;14.05;6.00;;;9.50;99.90;;;;;;5041677;28;20137;-77
2022/06/03 04:10:27;;;;;;;13.07;6.18;;;9.60;99.90;;;;;;5092897;28;20399;-77
2022/06/03 04:13:24;;;;;;;15.35;6.63;;;9.60;99.90;;;;;;5093390;28;20440;-78
2022/06/03 04:16:21;;;;;;;14.70;6.18;;;9.70;99.90;;;;;;5091800;28;20097;-77
2022/06/03 04:19:34;;;;;;;16.80;6.72;;;9.70;99.90;;;;;;5075214;28;20069;-79
2022/06/03 04:22:12;;;;;;;15.60;5.90;;;9.80;99.90;;;;;;5073286;28;20097;-79
2022/06/03 04:24:56;;;;;;;16.25;6.53;;;9.90;99.90;;;;;;5092050;28;20052;-79
2022/06/03 04:27:52;;;;;;;14.52;6.40;;;9.90;99.90;;;;;;5092967;28;20060;-74
2022/06/03 04:30:47;;;;;;;15.35;6.50;;;10.00;99.90;;;;;;5083507;28;20048;-77
2022/06/03 04:33:46;;;;;;;15.27;6.82;;;10.00;99.90;;;;;;5092827;28;20123;-78
2022/06/03 04:36:15;;;;;;;19.27;7.40;;;10.10;99.90;;;;;;5092908;28;20134;-77
2022/06/03 04:39:19;;;;;;;17.88;6.47;;;10.10;99.90;;;;;;5094392;28;20118;-75
2022/06/03 04:42:18;;;;;;;14.65;6.72;;;10.20;99.90;;;;;;5071865;28;20137;-77
2022/06/03 04:44:53;;;;;;;13.98;6.40;;;10.30;99.90;;;;;;5103334;28;20047;-76
2022/06/03 04:48:06;;;;;;;13.57;6.03;;;10.30;99.90;;;;;;5103068;28;20163;-75
2022/06/03 04:51:05;;;;;;;12.48;5.85;;;10.40;99.90;;;;;;5102814;28;20056;-76
2022/06/03 04:54:05;;;;;;;14.75;6.28;;;10.50;99.90;;;;;;5101699;28;20100;-74
2022/06/03 04:56:40;;;;;;;21.33;7.10;;;10.50;99.90;;;;;;5098082;28;20048;-76
2022/06/03 04:59:54;;;;;;;18.27;7.63;;;10.60;99.90;;;;;;5076835;28;20036;-76
2022/06/03 05:02:38;;;;;;;14.80;6.90;;;10.70;99.90;;;;;;5076655;28;20047;-76
2022/06/03 05:05:45;;;;;;;16.02;7.25;;;10.70;99.90;;;;;;5082282;28;20113;-77
2022/06/03 05:08:58;;;;;;;14.73;7.10;;;10.80;99.90;;;;;;5023102;28;20049;-75
2022/06/03 05:11:42;;;;;;;16.25;6.50;;;10.90;99.90;;;;;;5023304;28;20501;-74
2022/06/03 05:14:21;;;;;;;14.15;6.90;;;10.90;99.90;;;;;;5102326;28;20120;-78
2022/06/03 05:17:03;;;;;;;12.48;6.55;;;11.00;99.90;;;;;;5105094;28;20108;-75
2022/06/03 05:19:59;;;;;;;14.43;6.28;;;11.10;99.90;;;;;;5103328;28;20055;-74
2022/06/03 05:22:40;;;;;;;;;;;11.20;99.90;;;;;;5098037;28;20131;-77
2022/06/03 05:25:24;;;;;;;16.58;5.97;;;11.30;99.90;;;;;;5096813;28;19977;-78
2022/06/03 05:28:27;;;;;;;15.23;6.65;;;11.30;99.90;;;;;;5097784;28;20150;-75
2022/06/03 05:30:56;;;;;;;15.38;6.63;;;11.40;99.90;;;;;;5096063;28;20505;-76
2022/06/03 05:33:43;;;;;;;15.43;6.30;;;11.40;99.90;;;;;;5097292;28;20054;-76
2022/06/03 05:36:24;;;;;;;13.48;6.32;;;11.50;99.90;;;;;;5096347;28;20057;-76
2022/06/03 05:39:15;;;;;;;15.38;6.30;;;11.60;99.90;;;;;;5100565;28;20099;-78
2022/06/03 05:44:43;;;;;;;14.38;6.07;;;11.70;99.90;;;;;;5100176;28;20502;-77
2022/06/03 05:47:24;;;;;;;13.40;6.53;;;11.80;99.90;;;;;;5096648;28;20147;-75
2022/06/03 05:50:12;;;;;;;12.50;5.90;;;11.80;99.90;;;;;;5102041;28;20052;-75
2022/06/03 05:53:01;;;;;;;15.70;6.78;;;11.90;99.90;;;;;;5096902;28;20077;-74
2022/06/03 05:55:43;;;;;;;15.38;6.63;;;12.00;99.90;;;;;;5095780;28;20450;-75
2022/06/03 05:58:26;;;;;;;13.00;6.43;;;12.00;99.90;;;;;;5095795;28;20117;-76
2022/06/03 06:01:01;;;;;;;14.73;6.45;;;12.10;99.90;;;;;;5096677;28;20052;-76
2022/06/03 06:03:45;;;;;;;14.18;6.20;;;12.20;99.90;;;;;;5078661;28;20055;-75
2022/06/03 06:06:20;;;;;;;13.80;6.70;;;12.30;99.90;;;;;;5077631;28;20066;-75
2022/06/03 06:09:23;;;;;;;14.48;5.90;;;12.30;99.90;;;;;;5095359;28;20052;-75
2022/06/03 06:12:28;;;;;;;17.38;5.88;;;12.40;99.90;;;;;;5078155;28;20065;-75
2022/06/03 06:15:18;;;;;;;15.18;5.90;;;12.50;99.90;;;;;;5095597;28;20048;-78
2022/06/03 06:18:03;;;;;;;13.73;6.07;;;12.60;99.90;;;;;;5095378;28;20543;-77
2022/06/03 06:20:34;;;;;;;16.58;5.93;;;12.70;99.90;;;;;;5078751;28;20094;-76
2022/06/03 06:23:07;;;;;;;10.57;5.40;;;12.80;99.90;;;;;;5095364;28;20084;-76
2022/06/03 06:26:10;;;;;;;13.25;5.70;;;12.90;99.90;;;;;;5100110;28;20062;-77
2022/06/03 06:29:00;;;;;;;11.40;4.68;;;13.00;99.90;;;;;;5105490;28;20048;-75
2022/06/03 06:31:41;;;;;;;11.27;5.30;;;13.10;99.90;;;;;;5087476;28;20044;-75
2022/06/03 06:34:29;;;;;;;12.00;4.93;;;13.30;99.90;;;;;;5103390;28;20044;-76
2022/06/03 06:37:06;;;;;;;11.93;5.13;;;13.40;99.90;;;;;;5082455;28;20390;-76
2022/06/03 06:39:49;;;;;;;11.57;4.28;;;13.60;99.90;;;;;;5098894;28;20052;-75
2022/06/03 06:42:21;;;;;;;10.85;5.25;;;13.80;99.90;;;;;;5100335;28;20048;-78
2022/06/03 06:45:00;;;;;;;11.70;4.82;;;13.90;99.90;;;;;;5102830;28;20048;-76
2022/06/03 06:47:48;;;;;;;10.65;5.20;;;14.00;99.90;;;;;;5102864;28;20075;-76
2022/06/03 06:50:29;;;;;;;11.52;4.70;;;14.20;99.90;;;;;;5104338;28;20044;-76
2022/06/03 06:53:07;;;;;;;9.85;4.65;;;14.30;99.90;;;;;;5102435;28;20124;-77
2022/06/03 06:55:41;;;;;;;15.70;5.07;;;14.40;99.90;;;;;;5103236;28;20148;-78
2022/06/03 06:58:42;;;;;;;10.30;4.75;;;14.50;99.90;;;;;;5104272;28;20055;-75
2022/06/03 07:01:14;;;;;;;12.55;5.20;;;14.50;99.90;;;;;;5100463;28;20044;-76
2022/06/03 07:04:12;;;;;;;15.10;5.47;;;14.70;99.90;;;;;;5104200;28;20118;-79
2022/06/03 07:06:51;;;;;;;11.43;5.03;;;14.70;99.90;;;;;;5074500;28;20124;-75
2022/06/03 07:09:34;;;;;;;10.85;4.15;;;14.80;99.90;;;;;;5099955;28;20048;-76
2022/06/03 07:12:12;;;;;;;9.07;4.82;;;14.90;99.90;;;;;;5098992;28;20051;-76
2022/06/03 07:14:54;;;;;;;11.40;4.95;;;15.00;99.90;;;;;;5082495;28;20139;-75
2022/06/03 07:20:41;;;;;;;10.75;4.68;;;15.10;99.90;;;;;;5096018;28;20059;-76
2022/06/03 07:23:18;;;;;;;10.90;5.22;;;15.20;99.90;;;;;;5097271;28;20090;-76
2022/06/03 07:25:46;;;;;;;9.93;4.63;;;15.30;99.90;;;;;;5095267;28;20447;-78
2022/06/03 07:28:45;;;;;;;12.52;4.90;;;15.40;99.90;;;;;;5079557;28;20055;-78
2022/06/03 07:31:11;;;;;;;10.50;4.57;;;;;;;;;;5078218;28;20139;-77
2022/06/03 07:33:43;;;;;;;9.43;4.57;;;15.60;99.90;;;;;;5096797;28;20113;-75
2022/06/03 07:36:28;;;;;;;13.93;5.15;;;15.70;99.90;;;;;;5079066;28;20105;-77
2022/06/03 07:39:12;;;;;;;11.50;4.53;;;15.80;99.90;;;;;;5096970;28;20079;-77
2022/06/03 07:41:51;;;;;;;10.23;4.53;;;15.90;99.90;;;;;;5083813;28;20164;-76
2022/06/03 07:44:28;;;;;;;11.05;5.20;;;15.90;99.90;;;;;;5113543;28;20048;-75
2022/06/03 07:47:00;;;;;;;10.05;4.82;;;16.10;99.90;;;;;;5096966;28;20059;-76
2022/06/03 07:49:29;;;;;;;11.63;5.07;;;16.10;99.90;;;;;;5098614;28;20039;-78
2022/06/03 07:52:03;;;;;;;9.07;4.38;;;16.20;99.90;;;;;;5100144;28;20040;-74
2022/06/03 07:54:34;;;;;;;12.35;5.50;;;16.30;99.90;;;;;;5106298;28;20094;-74
2022/06/03 07:57:22;;;;;;;10.52;4.43;;;16.40;99.90;;;;;;5108365;28;20047;-75
2022/06/03 07:59:48;;;;;;;8.85;4.22;;;16.50;99.90;;;;;;5106825;28;20040;-76
2022/06/03 08:02:18;;;;;;;9.65;5.30;;;16.60;99.90;;;;;;5105584;28;20066;-75
2022/06/03 08:04:47;;;;;;;9.43;4.82;;;16.70;99.90;;;;;;5106127;28;20044;-75
2022/06/03 08:13:00;;;;;;;7.68;4.05;;;17.00;99.00;;;;;;5097133;28;20097;-76
2022/06/03 08:15:35;;;;;;;9.55;4.60;;;17.20;99.30;;;;;;5079721;28;20442;-75
2022/06/03 08:18:05;;;;;;;8.90;3.85;;;17.20;98.00;;;;;;5093377;28;20055;-77
2022/06/03 08:20:45;;;;;;;13.40;3.90;;;17.30;97.30;;;;;;5095984;28;20469;-77
2022/06/03 08:23:11;;;;;;;10.63;4.38;;;17.30;97.00;;;;;;5097555;28;20554;-77
2022/06/03 08:25:41;;;;;;;9.00;3.93;;;17.40;95.60;;;;;;5097678;28;20055;-78
2022/06/03 08:28:12;;;;;;;8.80;3.72;;;17.40;96.00;;;;;;5092851;28;20052;-75
2022/06/03 08:30:39;;;;;;;9.38;4.07;;;17.50;95.90;;;;;;5092408;28;20052;-76
2022/06/03 08:33:08;;;;;;;11.60;3.95;;;17.50;95.40;;;;;;5091985;28;20399;-77
2022/06/03 08:35:37;;;;;;;8.50;3.85;;;17.60;95.70;;;;;;5093866;28;20070;-75
2022/06/03 08:38:28;;;;;;;9.75;4.32;;;17.70;95.20;;;;;;5096448;28;20368;-75
2022/06/03 08:41:31;;;;;;;9.35;4.28;;;17.80;94.80;;;;;;5085162;28;20117;-77
2022/06/03 08:44:06;;;;;;;9.40;3.63;;;17.90;94.70;;;;;;5098518;28;20047;-74
2022/06/03 08:46:37;;;;;;;8.60;4.22;;;17.90;94.10;;;;;;5097466;28;20040;-75
2022/06/03 08:49:19;;;;;;;9.07;4.00;;;18.00;93.90;;;;;;5080703;28;20036;-73
2022/06/03 08:51:52;;;;;;;9.45;3.67;;;18.10;93.00;;;;;;5096820;28;20050;-78
2022/06/03 08:54:21;;;;;;;7.57;3.55;;;18.10;93.70;;;;;;5099098;28;20046;-77
2022/06/03 08:56:51;;;;;;;8.60;3.92;;;18.20;94.00;;;;;;5097531;28;20086;-76
2022/06/03 08:59:35;;;;;;;8.20;3.83;;;18.30;93.30;;;;;;5095772;28;20452;-75
2022/06/03 09:02:11;;;;;;;10.52;4.20;;;18.30;92.40;;;;;;5096062;28;20044;-77
2022/06/03 09:04:49;;;;;;;7.67;3.53;;;18.30;92.50;;;;;;5097190;28;20109;-75
2022/06/03 09:07:18;;;;;;;12.55;4.57;;;18.40;92.60;;;;;;5095264;28;20559;-76
2022/06/03 09:10:16;;;;;;;10.30;4.43;;;18.50;91.40;;;;;;5097141;28;20040;-74
2022/06/03 09:12:55;;;;;;;10.00;3.85;;;18.50;92.00;;;;;;5078941;28;20087;-74
2022/06/03 09:15:23;;;;;;;8.82;3.70;;;18.60;91.70;;;;;;5096446;28;20040;-74
2022/06/03 09:18:02;;;;;;;9.27;3.45;;;18.60;91.60;;;;;;5079223;28;20135;-76
2022/06/03 09:20:42;;;;;;;9.00;3.83;;;18.80;91.20;;;;;;5096465;28;20129;-74
2022/06/03 09:23:11;;;;;;;8.13;3.22;;;18.80;91.10;;;;;;5096270;28;20376;-77
2022/06/03 09:25:49;;;;;;;8.15;3.78;;;19.00;91.40;;;;;;5094923;28;20048;-75
2022/06/03 09:28:24;;;;;;;7.93;4.18;;;19.10;90.90;;;;;;5094763;28;20048;-75
2022/06/03 09:30:51;;;;;;;12.50;4.70;;;19.10;88.30;;;;;;5096331;28;20132;-73
2022/06/03 09:33:21;;;;;;;8.98;4.13;;;19.10;88.70;;;;;;5097660;28;20044;-74
2022/06/03 09:35:50;;;;;;;8.63;4.10;;;19.20;89.10;;;;;;5098425;28;20451;-74
2022/06/03 09:38:21;;;;;;;8.55;3.95;;;19.20;88.90;;;;;;5079231;28;20131;-75
2022/06/03 09:40:48;;;;;;;9.60;4.05;;;19.30;87.50;;;;;;5078928;28;20082;-75
2022/06/03 09:43:42;;;;;;;7.15;4.05;;;19.30;86.60;;;;;;5095498;28;20557;-76
2022/06/03 09:46:11;;;;;;;7.82;4.13;;;19.30;86.80;;;;;;5075934;28;20056;-76
2022/06/03 09:48:39;;;;;;;8.68;3.80;;;19.30;85.40;;;;;;5095453;28;20127;-75
2022/06/03 09:54:11;;;;;;;7.22;3.70;;;19.50;85.50;;;;;;5097951;28;20052;-76
2022/06/03 09:56:38;;;;;;;7.75;4.00;;;19.50;83.10;;;;;;5100337;28;20428;-75
2022/06/03 09:59:04;;;;;;;7.75;3.58;;;19.60;81.40;;;;;;5079507;28;20040;-73
2022/06/03 10:01:31;;;;;;;9.77;4.13;;;19.50;82.50;;;;;;5096504;28;20048;-73
2022/06/03 10:04:00;;;;;;;8.05;3.30;;;19.50;81.60;;;;;;5096728;28;20531;-75
2022/06/03 10:17:47;;;;;;;9.65;3.90;;;19.90;77.50;;;;;;5095869;28;20506;-73
2022/06/03 10:20:13;;;;;;;10.35;4.40;;;19.90;78.80;;;;;;5094982;28;20056;-76
2022/06/03 10:22:40;;;;;;;7.57;4.00;;;20.00;78.50;;;;;;5095818;28;20078;-76
2022/06/03 10:25:08;;;;;;;10.80;4.72;;;20.00;78.20;;;;;;5095828;28;20382;-73
2022/06/03 10:27:34;;;;;;;12.60;4.30;;;20.10;77.20;;;;;;5094086;28;20445;-75
2022/06/03 10:30:00;;;;;;;8.55;4.25;;;20.10;77.90;;;;;;5094991;28;20521;-74
2022/06/03 10:32:26;;;;;;;10.48;4.45;;;20.30;76.30;;;;;;5094995;28;20404;-75
2022/06/03 10:35:03;;;;;;;12.20;3.67;;;20.20;75.70;;;;;;5077057;28;20044;-74
2022/06/03 10:37:29;;;;;;;9.60;3.70;;;20.20;75.80;;;;;;5094253;28;20838;-73
2022/06/03 10:39:56;;;;;;;10.97;4.20;;;20.30;76.10;;;;;;5093655;28;20059;-74
2022/06/03 10:42:23;;;;;;;8.57;3.50;;;20.20;72.60;;;;;;5094582;28;20052;-75
2022/06/03 10:44:56;;;;;;;5.93;3.08;;;20.40;74.70;;;;;;5093801;28;20152;-75
2022/06/03 10:47:44;;;;;;;6.22;3.28;;;20.50;75.20;;;;;;5094384;28;20488;-74
2022/06/03 10:50:25;;;;;;;8.80;4.15;;;20.60;74.50;;;;;;5092936;28;20075;-76
2022/06/03 11:01:40;;;;;;;6.85;3.60;;;20.80;73.90;;;;;;5094118;28;20064;-74
2022/06/03 11:04:06;;;;;;;8.43;3.35;;;20.90;73.40;;;;;;5076755;28;20209;-77
2022/06/03 11:06:37;;;;;;;10.13;4.03;;;21.10;74.70;;;;;;5093670;28;20135;-77
2022/06/03 11:09:08;;;;;;;7.05;3.30;;;21.20;71.10;;;;;;5094386;28;20036;-77
2022/06/03 11:11:47;;;;;;;8.73;2.97;;;21.10;69.80;;;;;;5094312;28;20035;-74
2022/06/03 11:14:28;;;;;;;7.72;3.45;;;21.20;70.40;;;;;;5094249;28;20083;-75
2022/06/03 11:16:58;;;;;;;8.13;3.08;;;21.20;68.70;;;;;;5076464;28;20134;-74
2022/06/03 11:19:25;;;;;;;5.63;2.97;;;21.10;67.90;;;;;;5076432;28;20044;-75
2022/06/03 11:22:19;;;;;;;5.32;2.60;;;21.20;67.00;;;;;;5097612;28;20052;-74
2022/06/03 11:24:53;;;;;;;8.82;2.97;;;21.20;66.40;;;;;;5093734;28;20056;-75
2022/06/03 11:27:27;;;;;;;6.53;3.58;;;21.10;67.40;;;;;;5103903;28;20079;-75
2022/06/03 11:29:59;;;;;;;7.60;3.83;;;20.90;65.60;;;;;;5097344;28;20083;-75
2022/06/03 11:32:27;;;;;;;6.63;2.90;;;21.10;66.90;;;;;;5078014;28;20048;-75
2022/06/03 11:35:01;;;;;;;9.70;3.50;;;21.00;66.60;;;;;;5093832;28;20055;-75
2022/06/03 11:37:34;;;;;;;8.57;2.75;;;21.20;66.10;;;;;;5076545;28;20468;-74
2022/06/03 11:40:25;;;;;;;4.90;3.03;;;21.20;65.20;;;;;;5094521;28;20044;-75
2022/06/03 11:43:00;;;;;;;4.65;2.63;;;21.20;64.00;;;;;;5083174;28;20368;-75
2022/06/03 11:45:40;;;;;;;4.88;2.78;;;21.30;64.70;;;;;;5094771;28;20099;-74
2022/06/03 11:48:13;;;;;;;10.38;3.25;;;21.20;65.10;;;;;;5095659;28;20091;-72
2022/06/03 11:50:39;;;;;;;6.88;2.67;;;21.20;66.00;;;;;;5077430;28;20071;-74
2022/06/03 11:53:05;;;;;;;6.80;2.77;;;21.40;65.90;;;;;;5093930;28;20090;-76
2022/06/03 11:55:32;;;;;;;6.67;3.03;;;21.40;65.30;;;;;;5093535;28;20076;-76
2022/06/03 11:58:20;;;;;;;6.50;3.25;;;21.50;65.70;;;;;;5095714;28;20051;-75
2022/06/03 12:00:59;;;;;;;6.72;2.92;;;21.50;65.20;;;;;;5076767;28;20135;-75
2022/06/03 12:03:45;;;;;;;10.20;3.17;;;21.60;61.80;;;;;;5093715;28;20451;-75
2022/06/03 12:06:36;;;;;;;8.63;2.60;;;21.70;64.10;;;;;;5060999;28;20067;-74
2022/06/03 12:09:22;;;;;;;5.15;2.60;;;21.70;64.20;;;;;;5092627;28;20051;-74
2022/06/03 12:14:45;;;;;;;9.50;2.80;;;21.80;62.60;;;;;;5092233;28;20063;-74
2022/06/03 12:17:11;;;;;;;5.78;3.30;;;21.80;63.20;;;;;;5092168;28;20161;-75
2022/06/03 12:19:47;;;;;;;7.03;3.43;;;21.80;62.60;;;;;;5091897;28;20052;-74
2022/06/03 12:22:28;;;;;;;6.35;3.22;;;21.70;63.50;;;;;;5091764;28;20091;-77
2022/06/03 12:24:55;;;;;;;7.78;3.53;;;21.70;63.80;;;;;;5091911;28;20051;-76
2022/06/03 12:27:37;;;;;;;8.93;4.10;;;21.70;64.40;;;;;;5093129;28;20043;-74
2022/06/03 12:30:06;;;;;;;7.43;4.53;;;21.70;64.20;;;;;;5093660;28;20047;-77
2022/06/03 12:32:33;;;;;;;9.77;3.80;;;21.30;61.00;;;;;;5092936;28;20040;-76
2022/06/03 12:35:38;;;;;;;8.70;3.47;;;21.40;64.10;;;;;;5092285;28;20123;-74
2022/06/03 12:38:22;;;;;;;7.85;3.78;;;21.60;63.90;;;;;;5093571;28;20547;-75
2022/06/03 12:40:56;;;;;;;7.43;3.50;;;21.70;64.00;;;;;;5091988;28;20051;-75
2022/06/03 12:43:28;;;;;;;7.75;3.00;;;21.80;64.40;;;;;;5094141;28;20413;-75
2022/06/03 12:46:09;;;;;;;8.00;3.35;;;21.80;63.60;;;;;;5093855;28;20066;-76
2022/06/03 12:48:37;;;;;;;7.15;3.13;;;21.70;62.00;;;;;;5093344;28;20109;-75
2022/06/03 12:51:19;;;;;;;7.88;3.33;;;21.50;62.80;;;;;;5075323;28;20109;-76
2022/06/03 12:53:48;;;;;;;6.97;3.55;;;21.50;63.10;;;;;;5092644;28;20055;-75
2022/06/03 12:56:41;;;;;;;6.85;3.20;;;21.60;62.30;;;;;;5092480;28;20105;-75
2022/06/03 12:59:57;;;;;;;7.82;4.13;;;21.70;63.40;;;;;;5091587;28;20109;-76
2022/06/03 13:02:24;;;;;;;;;;;21.70;63.00;;;;;;5014962;28;20044;-74
2022/06/03 13:04:52;;;;;;;9.98;3.33;;;21.90;64.20;;;;;;5030508;28;19933;-78
2022/06/03 13:07:27;;;;;;;9.40;3.97;;;22.00;63.70;;;;;;5057490;28;20098;-73
2022/06/03 13:10:04;;;;;;;8.75;3.75;;;22.00;62.90;;;;;;5092967;28;20433;-75
2022/06/03 13:12:34;;;;;;;8.38;3.70;;;21.90;61.00;;;;;;5091701;28;20055;-75
2022/06/03 13:15:20;;;;;;;6.80;3.90;;;21.90;62.00;;;;;;5091769;28;20044;-75
2022/06/03 13:18:19;;;;;;;8.45;3.95;;;21.80;61.60;;;;;;5091153;28;20037;-74
2022/06/03 13:20:48;;;;;;;6.72;3.70;;;22.00;62.20;;;;;;5092029;28;20056;-76
2022/06/03 13:23:23;;;;;;;7.72;3.42;;;21.90;61.80;;;;;;5093100;28;20048;-74
2022/06/03 13:25:50;;;;;;;8.55;4.10;;;21.90;62.30;;;;;;5078160;28;20067;-76
2022/06/03 13:28:34;;;;;;;10.40;3.58;;;22.00;61.10;;;;;;5094989;28;20491;-76
2022/06/03 13:31:05;;;;;;;6.90;3.33;;;22.00;61.00;;;;;;5097074;28;20055;-76
2022/06/03 13:33:31;;;;;;;7.03;3.50;;;21.90;61.30;;;;;;5095562;28;20055;-75
2022/06/03 13:35:59;;;;;;;7.70;3.50;;;21.90;61.20;;;;;;5061632;28;20063;-76
2022/06/03 13:38:43;;;;;;;9.05;3.75;;;22.00;60.60;;;;;;5080528;28;20047;-75
2022/06/03 13:44:39;;;;;;;7.75;3.45;;;22.10;60.90;;;;;;5096833;28;20048;-77
2022/06/03 13:47:13;;;;;;;15.23;3.03;;;22.00;60.40;;;;;;5095996;28;20040;-76
2022/06/03 13:49:49;;;;;;;6.90;3.38;;;22.00;61.00;;;;;;5078168;28;20470;-76
2022/06/03 13:52:21;;;;;;;;;;;22.00;59.50;;;;;;5097398;28;20083;-75
2022/06/03 13:54:54;;;;;;;6.78;3.03;;;22.10;60.10;;;;;;5097741;28;19979;-79
2022/06/03 13:57:40;;;;;;;10.13;3.75;;;22.20;60.40;;;;;;5096434;28;20506;-76
2022/06/03 14:00:27;;;;;;;;;;;22.30;59.60;;;;;;5095195;28;20043;-77
2022/06/03 14:03:10;;;;;;;6.97;3.28;;;22.20;59.20;;;;;;5077820;28;20034;-76
2022/06/03 14:06:01;;;;;;;7.78;3.60;;;22.30;59.30;;;;;;5079669;28;20062;-78
2022/06/03 14:08:43;;;;;;;8.15;3.40;;;22.30;59.40;;;;;;5079867;28;20059;-76
2022/06/03 14:11:17;;;;;;;12.02;3.42;;;22.30;59.90;;;;;;5096854;28;20049;-78
2022/06/03 14:13:58;;;;;;;7.65;3.72;;;22.30;57.90;;;;;;5096638;28;20048;-75
2022/06/03 14:16:27;;;;;;;6.60;3.10;;;21.90;57.50;;;;;;5096748;28;20132;-76
2022/06/03 14:18:55;;;;;;;7.78;3.42;;;22.10;59.10;;;;;;5078459;28;20377;-76
2022/06/03 14:21:40;;;;;;;8.63;3.60;;;22.20;60.10;;;;;;5113387;28;20404;-75
2022/06/03 14:24:19;;;;;;;7.03;3.90;;;22.40;59.30;;;;;;5096910;28;20131;-73
2022/06/03 14:27:09;;;;;;;7.63;3.47;;;22.30;56.70;;;;;;5077837;28;20048;-75
2022/06/03 14:29:41;;;;;;;7.28;2.90;;;22.10;57.90;;;;;;5096044;28;20071;-75
2022/06/03 14:32:14;;;;;;;8.10;2.97;;;22.30;59.10;;;;;;5077931;28;20056;-77
2022/06/03 14:35:01;;;;;;;6.15;3.13;;;22.50;59.40;;;;;;5095674;28;20048;-76
2022/06/03 14:37:53;;;;;;;8.23;3.35;;;22.50;56.50;;;;;;5094815;28;20060;-76